Flight Track Log - Related Links

Times and Time Zones

All times are in EDT time to prevent confusion due to time zone crossing. See the FDX1670 flight status page for this flight to view local times or setup timezone preferences in your user account.

Time Position Orientation Groundspeed Altitude Reporting Facility
EDT Latitude Longitude Course Direction KTS MPH feet Rate Location/Type
12:00AM 39.8133 -82.9289 282° West 158 182 1,000  Level Indianapolis Center
12:00AM 39.7990 -82.9490 225° Southwest 171 197 2,100 2,286 Climbing FlightAware
12:01AM 39.7890 -82.9620 225° Southwest 189 217 2,600 732 Climbing FlightAware
12:01AM 39.7760 -82.9790 225° Southwest 189 217 2,600 2,649 Level FlightAware
12:04AM 39.8456 -83.1990 288° West  Level FlightAware Approximate
12:05AM 39.8601 -83.2938 282° West  Level FlightAware Approximate
12:06AM 39.8880 -83.5420 282° West 393 452 16,200  Level FlightAware
12:06AM 39.9030 -83.6170 285° West 406 467 17,400 2,328 Climbing FlightAware
12:07AM 39.9190 -83.7010 284° West 414 476 18,800 2,143 Climbing FlightAware
12:08AM 39.9360 -83.7870 284° West 425 489 19,900 2,087 Climbing FlightAware
12:08AM 39.9510 -83.8670 284° West 428 493 21,200 1,800 Climbing FlightAware
12:09AM 39.9610 -83.9620 278° West 431 496 22,000 667 Climbing FlightAware
12:09AM 39.9700 -84.0550 277° West 435 501 22,000  Level FlightAware
12:10AM 39.9810 -84.1860 276° West 434 499 22,000  Level FlightAware
12:11AM 39.9870 -84.2660 276° West 434 499 22,000  Level FlightAware
12:11AM 39.9930 -84.3460 276° West 434 499 22,000  Level FlightAware
12:12AM 40.0000 -84.4250 277° West 434 499 22,000  Level FlightAware
12:13AM 40.0120 -84.5690 276° West 434 499 22,000  Level FlightAware
12:13AM 40.0170 -84.6490 275° West 434 499 22,000  Level FlightAware
12:14AM 40.0280 -84.7610 277° West 433 498 22,000  Level FlightAware
12:14AM 40.0350 -84.8550 276° West 432 497 22,000  Level FlightAware
12:15AM 40.0420 -84.9480 276° West 432 497 22,000  Level FlightAware
12:16AM 40.0490 -85.0310 276° West 432 497 22,000 -1,059 Level FlightAware
12:16AM 40.0590 -85.1630 276° West 412 474 20,500 -2,259 Descending FlightAware
12:17AM 40.0650 -85.2460 275° West 405 466 18,800 -3,176 Descending FlightAware
12:18AM 40.0720 -85.3310 276° West 404 465 16,900 -3,043 Descending FlightAware
12:18AM 40.0780 -85.4110 276° West 395 455 15,300 -2,870 Descending FlightAware
12:19AM 40.0840 -85.4970 275° West 384 442 13,600 -2,833 Descending FlightAware
12:19AM 40.0900 -85.5770 276° West 376 433 11,900 -1,976 Descending FlightAware
12:20AM 40.0860 -85.6850 267° West 364 419 10,800 -776 Descending FlightAware
12:21AM 40.0510 -85.7520 236° Southwest 374 430 10,800  Level FlightAware
12:21AM 40.0060 -85.8080 224° Southwest 371 427 10,800  Level FlightAware
12:22AM 39.9680 -85.8580 225° Southwest 371 427 10,800  Level FlightAware
12:22AM 39.9230 -85.9180 226° Southwest 371 427 10,800  Level FlightAware
12:23AM 39.8800 -85.9730 224° Southwest 372 428 10,800  Level FlightAware
12:24AM 39.8400 -86.0250 225° Southwest 325 374 10,800  Level FlightAware
12:24AM 39.8090 -86.0670 226° Southwest 288 331 10,800 -429 Level FlightAware
12:25AM 39.7750 -86.1110 225° Southwest 269 310 10,300 -1,034 Descending FlightAware
12:25AM 39.7560 -86.1340 223° Southwest 267 307 9,800 -1,500 Descending FlightAware
12:25AM 39.7370 -86.1550 220° Southwest 266 306 9,300 -2,045 Descending FlightAware
12:26AM 39.7160 -86.1780 220° Southwest 266 306 8,300 -2,651 Descending FlightAware
12:26AM 39.6960 -86.2000 220° Southwest 275 316 7,400 -2,634 Descending FlightAware
12:27AM 39.6750 -86.2230 220° Southwest 277 319 6,500 -2,714 Descending FlightAware
12:27AM 39.6560 -86.2450 222° Southwest 277 319 5,500 -2,833 Descending FlightAware
12:27AM 39.6400 -86.2640 222° Southwest 276 318 4,800 -2,333 Descending FlightAware
12:27AM 39.6220 -86.2860 223° Southwest 263 303 4,100 -1,500 Descending FlightAware
12:28AM 39.6050 -86.3050 221° Southwest 241 277 3,800 -1,050 Descending FlightAware
12:28AM 39.5890 -86.3240 222° Southwest 225 259 3,400 -1,091 Descending FlightAware
12:29AM 39.5730 -86.3440 224° Southwest 207 238 3,000 -818 Descending FlightAware
12:29AM 39.5590 -86.3610 223° Southwest 196 226 2,800 -375 Descending FlightAware
12:29AM 39.5520 -86.3730 233° Southwest 205 236 2,800  Level FlightAware
12:29AM 39.5500 -86.3880 260° West 206 237 2,800  Level FlightAware
12:30AM 39.5480 -86.4150 265° West 206 237 2,800  Level FlightAware
12:30AM 39.5760 -86.4230 348° North 177 204 2,800  Level FlightAware
12:30AM 39.5920 -86.4190 11° North 177 204 2,800  Level FlightAware
12:31AM 39.6140 -86.4110 16° North 175 201 2,800  Level FlightAware
12:31AM 39.6180 -86.4080 30° Northeast 173 199 2,800 -462 Level FlightAware
12:31AM 39.6230 -86.4030 38° Northeast 174 200 2,700 -800 Descending FlightAware
12:31AM 39.6350 -86.3870 46° Northeast 164 189 2,400 -857 Descending FlightAware
12:32AM 39.6480 -86.3710 43° Northeast 140 161 2,000 -808 Descending FlightAware
12:32AM 39.6590 -86.3570 44° Northeast 120 138 1,700 -682 Descending FlightAware
12:33AM 39.6670 -86.3470 44° Northeast 117 135 1,500 -600 Descending FlightAware
12:33AM 39.6750 -86.3370 44° Northeast 121 139 1,300 -615 Descending FlightAware
12:33AM 39.6820 -86.3270 48° Northeast 121 139 1,100 -600 Descending FlightAware
12:34AM 39.6910 -86.3160 43° Northeast 118 136 900 -310 Descending FlightAware
12:34AM 39.7030 -86.3010 44° Northeast 120 138 800 -162 Descending FlightAware

Login

Don't have an account? Register now (free) for customized features, flight alerts, and more!